createdAt,value
2018-12-09T00:03:31.675Z,65.81
2018-12-09T00:08:43.219Z,65.17
2018-12-09T00:13:55.023Z,65.05
2018-12-09T00:19:09.392Z,64.97
2018-12-09T00:24:21.035Z,64.48
2018-12-09T00:29:34.798Z,64.65
2018-12-09T00:34:46.025Z,64.46
2018-12-09T00:39:58.780Z,64.39
2018-12-09T00:45:11.828Z,64.45
2018-12-09T00:52:10.713Z,64.41
2018-12-09T00:57:22.476Z,64.31
2018-12-09T01:02:36.805Z,64.05
2018-12-09T01:07:49.591Z,64.06
2018-12-09T01:13:00.774Z,63.64
2018-12-09T01:18:13.631Z,63.96
2018-12-09T01:23:25.789Z,64.01
2018-12-09T01:28:39.221Z,64.08
2018-12-09T01:33:51.351Z,63.92
2018-12-09T01:39:04.377Z,64.00
2018-12-09T01:44:17.741Z,63.26
2018-12-09T01:52:09.658Z,63.83
2018-12-09T01:57:23.033Z,64.18
2018-12-09T02:02:34.320Z,64.13
2018-12-09T02:07:47.911Z,64.38
2018-12-09T02:12:59.708Z,64.94
2018-12-09T02:18:14.039Z,65.23
2018-12-09T02:23:25.772Z,65.20
2018-12-09T02:28:38.791Z,65.68
2018-12-09T02:33:49.315Z,65.50
2018-12-09T02:39:02.661Z,65.50
2018-12-09T02:44:14.654Z,65.30
2018-12-09T02:49:27.820Z,65.61
2018-12-09T02:54:39.772Z,65.19
2018-12-09T02:59:52.920Z,64.89
2018-12-09T03:05:07.926Z,65.11
2018-12-09T03:10:20.791Z,64.99
2018-12-09T03:15:32.646Z,65.03
2018-12-09T03:22:52.707Z,65.32
2018-12-09T03:28:05.643Z,64.76
2018-12-09T03:33:16.325Z,64.39
2018-12-09T03:38:29.575Z,64.45
2018-12-09T03:43:40.818Z,64.26
2018-12-09T03:48:53.811Z,64.18
2018-12-09T03:52:53.554Z,64.50
2018-12-09T03:58:07.704Z,64.15
2018-12-09T04:03:19.840Z,65.17
2018-12-09T04:08:36.635Z,67.70
2018-12-09T04:13:48.089Z,69.96
2018-12-09T04:19:00.915Z,71.57
2018-12-09T04:24:12.911Z,72.28
2018-12-09T04:26:43.315Z,72.16
2018-12-09T04:31:55.671Z,72.67
2018-12-09T04:37:08.839Z,72.18
2018-12-09T04:42:20.817Z,72.20
2018-12-09T04:50:16.678Z,70.64
2018-12-09T04:55:58.808Z,69.51
2018-12-09T05:01:09.931Z,69.15
2018-12-09T05:06:22.645Z,69.28
2018-12-09T05:11:36.409Z,68.62
2018-12-09T05:16:49.685Z,68.10
2018-12-09T05:22:02.049Z,67.11
2018-12-09T05:27:15.670Z,66.84
2018-12-09T05:32:29.667Z,67.02
2018-12-09T05:37:42.811Z,67.94
2018-12-09T05:42:53.897Z,67.93
2018-12-09T05:48:06.761Z,68.02
2018-12-09T05:53:18.047Z,68.96
2018-12-09T05:58:32.338Z,68.94
2018-12-09T06:03:44.520Z,69.29
2018-12-09T06:08:58.742Z,70.45
2018-12-09T06:14:10.513Z,70.17
2018-12-09T06:19:23.367Z,70.82
2018-12-09T06:24:36.995Z,70.58
2018-12-09T06:29:49.818Z,70.48
2018-12-09T06:35:01.825Z,70.23
2018-12-09T06:40:15.787Z,70.13
2018-12-09T06:45:27.666Z,69.48
2018-12-09T06:50:40.673Z,69.32
2018-12-09T06:55:53.757Z,68.92
2018-12-09T07:01:06.654Z,68.67
2018-12-09T07:03:36.646Z,67.99
2018-12-09T07:08:48.323Z,67.93
2018-12-09T07:14:01.658Z,67.70
2018-12-09T07:19:14.815Z,67.19
2018-12-09T07:24:26.685Z,67.26
2018-12-09T07:29:39.765Z,67.37
2018-12-09T07:34:51.523Z,66.95
2018-12-09T07:40:05.250Z,66.76
2018-12-09T07:45:17.557Z,66.59
2018-12-09T07:50:30.643Z,66.41
2018-12-09T07:55:42.678Z,65.96
2018-12-09T08:00:54.682Z,65.62
2018-12-09T08:06:07.785Z,65.41
2018-12-09T08:11:19.654Z,65.73
2018-12-09T08:13:49.662Z,65.63
2018-12-09T08:19:02.659Z,65.51
2018-12-09T08:24:15.674Z,65.75
2018-12-09T08:29:28.706Z,65.56
2018-12-09T08:34:40.683Z,65.24
2018-12-09T08:39:53.753Z,65.47
2018-12-09T08:45:06.374Z,66.28
2018-12-09T08:50:21.551Z,67.03
2018-12-09T08:55:33.035Z,68.56
2018-12-09T09:00:45.075Z,69.41
2018-12-09T09:07:47.622Z,69.48
2018-12-09T09:12:59.044Z,70.00
2018-12-09T09:18:11.486Z,69.39
2018-12-09T09:23:23.037Z,68.99
2018-12-09T09:28:35.701Z,68.63
2018-12-09T09:33:47.765Z,67.65
2018-12-09T09:39:01.645Z,67.21
2018-12-09T09:44:12.462Z,66.53
2018-12-09T09:49:25.657Z,66.55
2018-12-09T09:54:36.804Z,66.01
2018-12-09T09:59:49.702Z,65.33
2018-12-09T10:05:00.768Z,64.19
2018-12-09T10:10:13.646Z,63.25
2018-12-09T10:15:25.251Z,63.28
2018-12-09T10:20:38.686Z,62.64
2018-12-09T10:23:08.542Z,62.14
2018-12-09T10:28:21.363Z,62.24
2018-12-09T10:33:34.043Z,61.91
2018-12-09T10:38:47.811Z,61.91
2018-12-09T10:43:59.370Z,62.75
2018-12-09T10:46:29.517Z,62.78
2018-12-09T10:54:26.382Z,62.73
2018-12-09T10:59:37.964Z,62.62
2018-12-09T11:04:55.692Z,62.44
2018-12-09T11:10:08.034Z,61.73
2018-12-09T11:15:18.625Z,62.35
2018-12-09T11:20:31.040Z,62.79
2018-12-09T11:25:42.699Z,63.33
2018-12-09T11:30:52.969Z,64.90
2018-12-09T11:36:06.925Z,65.89
2018-12-09T11:41:17.924Z,66.07
2018-12-09T11:46:31.723Z,65.88
2018-12-09T11:51:43.646Z,65.75
2018-12-09T11:56:56.047Z,66.61
2018-12-09T12:00:02.051Z,66.49
2018-12-09T12:05:13.676Z,66.61
2018-12-09T12:10:26.270Z,66.13
2018-12-09T12:15:39.695Z,65.59
2018-12-09T12:20:51.701Z,65.56
2018-12-09T12:23:21.573Z,65.21
2018-12-09T12:28:35.286Z,65.66
2018-12-09T12:33:46.791Z,65.93
2018-12-09T12:38:59.916Z,67.19
2018-12-09T12:44:11.672Z,67.42
2018-12-09T12:49:26.802Z,68.15
2018-12-09T12:53:34.774Z,67.56
2018-12-09T12:58:47.335Z,68.53
2018-12-09T13:03:59.046Z,68.98
2018-12-09T13:09:12.041Z,68.93
2018-12-09T13:14:24.024Z,69.90
2018-12-09T13:19:37.027Z,70.89
2018-12-09T13:24:48.038Z,71.13
2018-12-09T13:30:01.694Z,71.97
2018-12-09T13:35:13.268Z,69.56
2018-12-09T13:40:26.666Z,70.39
2018-12-09T13:45:38.394Z,72.14
2018-12-09T13:50:50.342Z,73.11
2018-12-09T13:56:03.442Z,73.56
2018-12-09T14:01:14.921Z,73.39
2018-12-09T14:06:27.688Z,72.86
2018-12-09T14:09:28.906Z,72.66
2018-12-09T14:14:40.927Z,73.25
2018-12-09T14:19:53.888Z,73.30
2018-12-09T14:25:07.405Z,73.36
2018-12-09T14:30:19.831Z,72.86
2018-12-09T14:35:31.032Z,72.52
2018-12-09T14:40:44.580Z,72.27
2018-12-09T14:45:55.789Z,72.53
2018-12-09T14:51:07.709Z,71.97
2018-12-09T14:56:20.381Z,73.12
2018-12-09T15:01:32.187Z,74.21
2018-12-09T15:06:44.774Z,75.54
2018-12-09T15:11:55.961Z,75.78
2018-12-09T15:17:09.618Z,74.39
2018-12-09T15:22:21.651Z,73.03
2018-12-09T15:27:35.251Z,71.46
2018-12-09T15:32:48.001Z,71.04
2018-12-09T15:38:00.784Z,71.34
2018-12-09T15:43:12.037Z,71.33
2018-12-09T15:48:25.037Z,70.84
2018-12-09T15:53:36.383Z,70.89
2018-12-09T15:58:49.371Z,70.65
2018-12-09T16:04:01.767Z,71.54
2018-12-09T16:09:15.421Z,71.68
2018-12-09T16:14:27.797Z,71.69
2018-12-09T16:19:40.772Z,72.59
2018-12-09T16:24:52.614Z,72.33
2018-12-09T16:30:06.292Z,73.07
2018-12-09T16:35:17.672Z,73.28
2018-12-09T16:40:30.743Z,73.29
2018-12-09T16:45:41.799Z,73.08
2018-12-09T16:50:54.661Z,73.09
2018-12-09T16:56:07.635Z,72.70
2018-12-09T17:03:03.028Z,72.90
2018-12-09T17:08:15.767Z,72.65
2018-12-09T17:13:27.748Z,73.18
2018-12-09T17:15:57.580Z,73.02
2018-12-09T17:21:09.634Z,73.03
2018-12-09T17:26:22.675Z,72.41
2018-12-09T17:31:35.037Z,72.38
2018-12-09T17:36:47.773Z,72.08
2018-12-09T17:41:58.782Z,71.80
2018-12-09T17:47:11.683Z,71.69
2018-12-09T17:52:23.732Z,71.41
2018-12-09T17:57:36.667Z,71.11
2018-12-09T18:02:50.041Z,71.49
2018-12-09T18:08:03.393Z,72.47
2018-12-09T18:13:15.044Z,72.84
2018-12-09T18:18:32.670Z,72.41
2018-12-09T18:23:44.932Z,71.89
2018-12-09T18:28:58.642Z,71.44
2018-12-09T18:34:10.689Z,71.11
2018-12-09T18:39:42.781Z,71.75
2018-12-09T18:45:42.036Z,71.38
2018-12-09T18:50:53.932Z,71.07
2018-12-09T18:56:06.751Z,70.69
2018-12-09T19:01:18.879Z,71.04
2018-12-09T19:06:31.778Z,71.30
2018-12-09T19:11:45.252Z,71.82
2018-12-09T19:16:57.897Z,71.65
2018-12-09T19:22:38.766Z,71.90
2018-12-09T19:27:51.432Z,71.56
2018-12-09T19:33:03.048Z,71.09
2018-12-09T19:38:15.689Z,71.33
2018-12-09T19:43:27.675Z,71.15
2018-12-09T19:48:40.649Z,70.91
2018-12-09T19:53:52.398Z,69.88
2018-12-09T19:59:06.191Z,69.68
2018-12-09T20:04:18.662Z,69.58
2018-12-09T20:09:31.792Z,69.45
2018-12-09T20:14:44.026Z,70.11
2018-12-09T20:19:57.901Z,69.23
2018-12-09T20:23:30.904Z,69.19
2018-12-09T20:28:44.378Z,68.92
2018-12-09T20:33:55.757Z,69.34
2018-12-09T20:39:10.031Z,68.58
2018-12-09T20:44:21.735Z,68.10
2018-12-09T20:49:34.783Z,66.37
2018-12-09T20:54:46.776Z,64.06
2018-12-09T20:59:59.764Z,62.66
2018-12-09T21:05:11.045Z,61.83
2018-12-09T21:10:22.431Z,61.28
2018-12-09T21:15:33.668Z,61.98
2018-12-09T21:20:45.522Z,63.00
2018-12-09T21:25:58.738Z,64.51
2018-12-09T21:31:10.641Z,65.07
2018-12-09T21:36:23.665Z,66.89
2018-12-09T21:41:36.242Z,67.05
2018-12-09T21:46:49.029Z,67.67
2018-12-09T21:52:00.379Z,67.39
2018-12-09T21:57:13.666Z,67.28
2018-12-09T22:02:25.584Z,66.90
2018-12-09T22:04:55.573Z,66.63
2018-12-09T22:10:08.595Z,66.39
2018-12-09T22:15:20.692Z,66.15
2018-12-09T22:20:33.755Z,65.86
2018-12-09T22:28:26.703Z,66.64
2018-12-09T22:33:38.386Z,66.61
2018-12-09T22:38:51.214Z,66.46
2018-12-09T22:44:02.782Z,66.20
2018-12-09T22:49:15.865Z,66.09
2018-12-09T22:54:27.885Z,66.28
2018-12-09T22:59:40.805Z,66.53
2018-12-09T23:05:03.734Z,66.86
2018-12-09T23:07:40.375Z,66.97
2018-12-09T23:12:51.759Z,66.70
2018-12-09T23:18:05.398Z,67.19
2018-12-09T23:23:17.505Z,67.04
2018-12-09T23:25:48.288Z,67.04
2018-12-09T23:33:34.992Z,66.85
2018-12-09T23:38:49.799Z,67.09
2018-12-09T23:44:02.458Z,67.06
2018-12-09T23:49:16.782Z,67.08
2018-12-09T23:54:31.358Z,67.25
2018-12-09T23:59:46.581Z,67.48
